Kezdőlap
METAR-TAF:

METAR-TAF

Repülőterek :

Guidonia, Olaszország

földrajzi szélesség: 42-00N, földrajzi hosszúság: 012-44E, magasság: 88 m

METAR: hiányzik

Idő: 21:32 (20:32 UTC)

Előrejelzés

A jelentés 30 órával és 32 perccel ezelõtt készült, 14:00 UTC
Az előrejelzés 21-én 15 óra UTC és 21-én 24 óra UTC között érvényes
Különbözõ irányokból fújó szél 3 kt
Látótávolság 10 km, vagy több
felhőtlen 1500 m magasságban, és nincs gomolyfelhõ

TAF: LIRG 211400Z 2115/2124 VRB03KT CAVOK

Meteorológiai megfigyelések és előrejelzések több, mint 4000 repülőtéren (METAR és TAF jelentéseket).

A térképen piros és sárga pontok jelzik az elérhető meteorológiai állomásokat.

Mozgassa az egeret a pont fölött, hogy megjelenjen az állomás neve.

Azután kattintson az időjárási megfigyelések és előrejelzések megtekintéséhez.

A térkép megváltoztatása: kattintson a fekete keresztel jelölt zöld gombra ráközelítéshez, a vonallal jelölt zöld gombra távolításhoz, vagy a zöld nyilakra a szomszédos térképek eléréséhez.


METAR-TAF: